Time;durP1;ratioP1;P1;durP2;ratioP2;P2;SDS_P1;SDS_P2;PMS_P1;PMS_P2;Temp;Humidity;BMP_temperature;BMP_pressure;BME280_temperature;BME280_humidity;BME280_pressure;Samples;Min_cycle;Max_cycle;Signal;HPM_P1;HPM_P2
2022/11/07 00:01:16;;;;;;;1.83;0.90;;;10.60;99.90;;;;;;5115167;28;20434;-77
2022/11/07 00:03:42;;;;;;;1.20;0.90;;;10.60;99.90;;;;;;5114616;28;20471;-77
2022/11/07 00:06:08;;;;;;;1.57;0.90;;;10.60;99.90;;;;;;5114233;28;20441;-77
2022/11/07 00:08:33;;;;;;;2.03;1.20;;;10.50;99.90;;;;;;5117375;28;20180;-78
2022/11/07 00:11:03;;;;;;;1.50;1.00;;;10.50;99.90;;;;;;5118194;28;20245;-77
2022/11/07 00:13:29;;;;;;;2.70;1.20;;;10.50;99.90;;;;;;5114168;28;20165;-77
2022/11/07 00:15:58;;;;;;;1.20;0.83;;;10.50;99.90;;;;;;5114364;28;20553;-78
2022/11/07 00:18:24;;;;;;;3.40;1.00;;;10.50;99.90;;;;;;5116357;28;20169;-77
2022/11/07 00:20:49;;;;;;;1.83;1.00;;;10.40;99.90;;;;;;5112667;28;20794;-77
2022/11/07 00:23:15;;;;;;;1.40;0.80;;;10.50;99.90;;;;;;5112599;28;20185;-77
2022/11/07 00:25:40;;;;;;;2.50;1.20;;;10.40;99.90;;;;;;5115792;28;20169;-78
2022/11/07 00:28:06;;;;;;;3.10;1.47;;;10.40;99.90;;;;;;5117614;28;20646;-78
2022/11/07 00:30:31;;;;;;;1.93;1.00;;;10.40;99.90;;;;;;5117207;28;20201;-78
2022/11/07 00:32:57;;;;;;;1.80;1.13;;;10.40;99.90;;;;;;5116722;28;20217;-78
2022/11/07 00:35:22;;;;;;;1.60;0.80;;;10.40;99.90;;;;;;5118068;27;20193;-78
2022/11/07 00:37:48;;;;;;;2.50;0.93;;;10.40;99.90;;;;;;5119847;27;20195;-76
2022/11/07 00:40:13;;;;;;;1.63;0.90;;;10.40;99.90;;;;;;5125163;27;20213;-76
2022/11/07 00:42:39;;;;;;;2.23;1.10;;;10.40;99.90;;;;;;5114462;28;20175;-78
2022/11/07 00:45:05;;;;;;;1.40;1.00;;;10.40;99.90;;;;;;5114576;28;20530;-76
2022/11/07 00:47:31;;;;;;;2.90;1.20;;;10.40;99.90;;;;;;5112360;28;20264;-76
2022/11/07 00:49:56;;;;;;;1.40;0.83;;;10.40;99.90;;;;;;5113352;28;20950;-76
2022/11/07 00:52:22;;;;;;;1.53;0.97;;;10.50;99.90;;;;;;5113404;28;20196;-77
2022/11/07 00:54:47;;;;;;;1.20;0.80;;;10.50;99.90;;;;;;5113175;28;20672;-76
2022/11/07 00:57:13;;;;;;;1.23;0.87;;;10.50;99.90;;;;;;5113399;28;20165;-76
2022/11/07 00:59:38;;;;;;;1.40;0.97;;;10.60;99.90;;;;;;5111840;28;20184;-76
2022/11/07 01:02:04;;;;;;;1.93;0.70;;;10.60;99.90;;;;;;5112010;28;20175;-77
2022/11/07 01:07:13;;;;;;;1.40;1.07;;;10.70;99.90;;;;;;5093010;28;20158;-77
2022/11/07 01:09:39;;;;;;;3.47;1.00;;;10.80;99.90;;;;;;5096003;28;20426;-77
2022/11/07 01:12:05;;;;;;;1.30;0.93;;;10.80;99.90;;;;;;5113197;28;20165;-77
2022/11/07 01:14:30;;;;;;;1.43;0.90;;;10.90;99.90;;;;;;5113353;28;20168;-78
2022/11/07 01:16:56;;;;;;;1.70;1.30;;;10.90;99.90;;;;;;5111788;28;20171;-76
2022/11/07 01:19:21;;;;;;;1.67;1.00;;;11.00;99.90;;;;;;5112708;28;20168;-77
2022/11/07 01:21:47;;;;;;;1.20;0.87;;;10.90;99.90;;;;;;5113459;28;20161;-77
2022/11/07 01:24:14;;;;;;;1.30;1.00;;;10.90;99.90;;;;;;5111756;28;20189;-76
2022/11/07 01:26:41;;;;;;;1.30;0.90;;;10.80;99.90;;;;;;5112862;28;20230;-76
2022/11/07 01:29:07;;;;;;;1.40;0.90;;;10.90;99.90;;;;;;5112941;28;20893;-77
2022/11/07 01:31:32;;;;;;;1.30;0.90;;;10.80;99.90;;;;;;5112567;28;20537;-77
2022/11/07 01:33:59;;;;;;;1.70;1.40;;;10.80;99.90;;;;;;5115161;28;20169;-78
2022/11/07 01:36:25;;;;;;;3.00;1.30;;;10.80;99.90;;;;;;5114854;28;20201;-78
2022/11/07 01:38:51;;;;;;;1.70;1.03;;;10.80;99.90;;;;;;5114588;28;20837;-78
2022/11/07 01:41:20;;;;;;;1.70;1.10;;;10.70;99.90;;;;;;5114602;28;20434;-78
2022/11/07 01:43:54;;;;;;;1.70;1.17;;;10.70;99.90;;;;;;5112889;28;20410;-76
2022/11/07 01:46:23;;;;;;;3.07;1.20;;;10.70;99.90;;;;;;5114451;28;20496;-77
2022/11/07 01:48:55;;;;;;;1.47;1.27;;;10.60;99.90;;;;;;5129252;27;20424;-76
2022/11/07 01:51:22;;;;;;;1.93;1.20;;;10.60;99.90;;;;;;5115493;27;20514;-76
2022/11/07 01:53:48;;;;;;;4.70;1.60;;;10.60;99.90;;;;;;5112582;28;20442;-76
2022/11/07 01:56:17;;;;;;;2.93;1.10;;;10.60;99.90;;;;;;5112288;28;20497;-75
2022/11/07 01:58:45;;;;;;;6.60;1.10;;;10.60;99.90;;;;;;5112220;28;20422;-76
2022/11/07 02:01:11;;;;;;;3.77;1.60;;;10.60;99.90;;;;;;5113126;28;20419;-77
2022/11/07 02:03:37;;;;;;;8.43;1.27;;;10.50;99.90;;;;;;5114267;28;21029;-77
2022/11/07 02:06:06;;;;;;;2.30;0.90;;;10.60;99.90;;;;;;5117333;28;20493;-77
2022/11/07 02:08:35;;;;;;;1.17;0.83;;;10.50;99.90;;;;;;5113484;28;20418;-76
2022/11/07 02:11:02;;;;;;;1.90;1.47;;;10.60;99.90;;;;;;5113291;28;20918;-78
2022/11/07 02:13:30;;;;;;;2.77;1.10;;;10.60;99.90;;;;;;5115324;28;20403;-78
2022/11/07 02:15:58;;;;;;;3.93;1.23;;;10.60;99.90;;;;;;5115118;28;20537;-77
2022/11/07 02:18:26;;;;;;;5.97;1.33;;;10.50;99.90;;;;;;5114158;28;20427;-78
2022/11/07 02:20:52;;;;;;;2.83;1.03;;;10.50;99.90;;;;;;5114557;28;20439;-78
2022/11/07 02:23:38;;;;;;;1.77;1.23;;;10.50;99.90;;;;;;5112060;28;20487;-77
2022/11/07 02:26:03;;;;;;;3.33;1.37;;;10.40;99.90;;;;;;5111551;28;20411;-77
2022/11/07 02:28:30;;;;;;;1.37;0.90;;;10.50;99.90;;;;;;5110744;28;20437;-76
2022/11/07 02:30:55;;;;;;;2.70;1.10;;;10.40;99.90;;;;;;5112142;28;20189;-77
2022/11/07 02:33:22;;;;;;;2.33;1.30;;;10.40;99.90;;;;;;5115656;28;20464;-76
2022/11/07 02:35:50;;;;;;;3.33;1.00;;;10.30;99.90;;;;;;5115907;28;20715;-77
2022/11/07 02:38:31;;;;;;;2.17;1.37;;;10.30;99.90;;;;;;5116256;28;20446;-77
2022/11/07 02:41:04;;;;;;;1.50;0.87;;;10.30;99.90;;;;;;5116351;28;20441;-77
2022/11/07 02:43:31;;;;;;;2.77;1.37;;;10.30;99.90;;;;;;5116215;28;20452;-77
2022/11/07 02:46:00;;;;;;;2.43;1.20;;;10.20;99.90;;;;;;5116120;28;20429;-77
2022/11/07 02:48:31;;;;;;;2.80;1.50;;;10.20;99.90;;;;;;5116164;28;20425;-77
2022/11/07 02:50:56;;;;;;;2.20;1.23;;;10.10;99.90;;;;;;5115758;28;20442;-76
2022/11/07 02:53:22;;;;;;;2.13;1.50;;;10.20;99.90;;;;;;5115885;28;20914;-76
2022/11/07 02:55:48;;;;;;;3.73;1.53;;;10.20;99.90;;;;;;5115555;28;20726;-77
2022/11/07 02:58:14;;;;;;;5.53;1.43;;;10.10;99.90;;;;;;5116796;27;20415;-77
2022/11/07 03:00:39;;;;;;;1.87;1.33;;;10.10;99.90;;;;;;5115871;28;20189;-77
2022/11/07 03:03:05;;;;;;;2.37;0.97;;;10.10;99.90;;;;;;5117794;28;20165;-78
2022/11/07 03:05:30;;;;;;;3.47;1.30;;;10.00;99.90;;;;;;5117087;28;20656;-79
2022/11/07 03:07:56;;;;;;;3.17;1.43;;;10.00;99.90;;;;;;5116345;28;20177;-76
2022/11/07 03:10:21;;;;;;;9.13;1.57;;;10.00;99.90;;;;;;5115146;28;20288;-76
2022/11/07 03:12:47;;;;;;;2.33;1.10;;;10.00;99.90;;;;;;5115437;28;20169;-76
2022/11/07 03:15:13;;;;;;;1.30;0.90;;;10.00;99.90;;;;;;5115280;28;20216;-77
2022/11/07 03:17:39;;;;;;;2.50;1.10;;;10.00;99.90;;;;;;5115598;27;20248;-77
2022/11/07 03:20:06;;;;;;;3.63;1.10;;;10.00;99.90;;;;;;5115070;28;20435;-77
2022/11/07 03:22:31;;;;;;;4.80;1.20;;;10.10;99.90;;;;;;5115546;28;20443;-77
2022/11/07 03:24:57;;;;;;;4.33;1.40;;;10.00;99.90;;;;;;5115129;28;20789;-76
2022/11/07 03:27:22;;;;;;;3.97;1.80;;;10.00;99.90;;;;;;5115197;28;20165;-77
2022/11/07 03:29:48;;;;;;;3.97;1.30;;;10.00;99.90;;;;;;5115054;28;20694;-77
2022/11/07 03:32:13;;;;;;;1.63;1.10;;;10.00;99.90;;;;;;5115018;28;20222;-78
2022/11/07 03:34:39;;;;;;;5.13;1.83;;;10.10;99.90;;;;;;5115932;28;20180;-77
2022/11/07 03:37:04;;;;;;;6.03;1.47;;;10.10;99.90;;;;;;5115028;28;20657;-77
2022/11/07 03:39:30;;;;;;;3.10;1.30;;;10.10;99.90;;;;;;5114758;28;20177;-77
2022/11/07 03:41:55;;;;;;;4.27;1.37;;;10.10;99.90;;;;;;5113637;28;20169;-77
2022/11/07 03:44:21;;;;;;;1.63;1.20;;;10.10;99.90;;;;;;5113326;28;20534;-76
2022/11/07 03:46:47;;;;;;;3.10;1.20;;;10.10;99.90;;;;;;5113502;28;20519;-76
2022/11/07 03:49:12;;;;;;;2.03;1.00;;;10.10;99.90;;;;;;5114669;28;20255;-77
2022/11/07 03:51:38;;;;;;;4.60;1.33;;;10.10;99.90;;;;;;5114785;28;20196;-78
2022/11/07 03:54:03;;;;;;;4.30;1.50;;;10.00;99.90;;;;;;5115868;28;20185;-76
2022/11/07 03:56:29;;;;;;;2.17;1.20;;;10.00;99.90;;;;;;5114302;28;20288;-77
2022/11/07 03:58:54;;;;;;;3.63;1.10;;;9.90;99.90;;;;;;5113392;28;20545;-77
2022/11/07 04:01:20;;;;;;;1.80;1.10;;;9.90;99.90;;;;;;5114773;28;20189;-77
2022/11/07 04:03:45;;;;;;;2.90;1.17;;;10.00;99.90;;;;;;5114641;28;20165;-77
2022/11/07 04:06:11;;;;;;;1.70;1.40;;;10.00;99.90;;;;;;5114293;28;20176;-76
2022/11/07 04:08:36;;;;;;;4.50;1.53;;;9.90;99.90;;;;;;5118682;27;20883;-79
2022/11/07 04:11:02;;;;;;;1.73;1.17;;;10.00;99.90;;;;;;5115580;28;20208;-78
2022/11/07 04:18:56;;;;;;;4.57;1.43;;;10.00;99.90;;;;;;5114094;28;20433;-76
2022/11/07 04:21:23;;;;;;;4.63;1.27;;;10.00;99.90;;;;;;5112749;28;20455;-77
2022/11/07 04:23:48;;;;;;;1.90;1.20;;;10.00;99.90;;;;;;5113884;28;20414;-76
2022/11/07 04:28:58;;;;;;;2.33;1.50;;;10.10;99.90;;;;;;5114243;28;20233;-77
2022/11/07 04:31:24;;;;;;;7.03;1.70;;;10.00;99.90;;;;;;5117257;28;20851;-78
2022/11/07 04:33:50;;;;;;;3.70;1.47;;;10.10;99.90;;;;;;5117370;28;20182;-78
2022/11/07 04:36:15;;;;;;;3.30;1.17;;;10.00;99.90;;;;;;5113291;28;20657;-75
2022/11/07 04:38:41;;;;;;;4.63;1.17;;;10.10;99.90;;;;;;5113915;28;20393;-77
2022/11/07 04:41:22;;;;;;;5.67;1.40;;;10.10;99.90;;;;;;5112398;28;20189;-77
2022/11/07 04:43:48;;;;;;;2.77;1.90;;;10.10;99.90;;;;;;5113824;28;20152;-77
2022/11/07 04:46:15;;;;;;;2.33;1.20;;;10.10;99.90;;;;;;5113456;28;20767;-76
2022/11/07 04:48:41;;;;;;;4.40;1.50;;;10.20;99.90;;;;;;5114307;28;20422;-78
2022/11/07 04:51:15;;;;;;;2.43;1.50;;;10.20;99.90;;;;;;5116661;28;20430;-78
2022/11/07 04:53:40;;;;;;;1.57;1.20;;;10.20;99.90;;;;;;5115696;28;20395;-77
2022/11/07 04:56:06;;;;;;;3.80;1.30;;;10.20;99.90;;;;;;5112959;28;20507;-76
2022/11/07 04:58:32;;;;;;;6.60;1.37;;;10.30;99.90;;;;;;5114887;28;20569;-77
2022/11/07 05:00:57;;;;;;;3.60;1.10;;;10.30;99.90;;;;;;5113469;28;20224;-77
2022/11/07 05:03:23;;;;;;;4.10;1.13;;;10.30;99.90;;;;;;5113737;28;20168;-77
2022/11/07 05:05:48;;;;;;;3.53;1.37;;;10.40;99.90;;;;;;5114857;28;20306;-79
2022/11/07 05:08:14;;;;;;;6.93;1.30;;;10.40;99.90;;;;;;5115781;28;20634;-78
2022/11/07 05:10:39;;;;;;;5.97;1.50;;;10.30;99.90;;;;;;5116494;28;20211;-76
2022/11/07 05:13:05;;;;;;;7.13;1.63;;;10.40;99.90;;;;;;5116711;28;20196;-79
2022/11/07 05:15:30;;;;;;;7.70;1.47;;;10.40;99.90;;;;;;5115005;28;20200;-78
2022/11/07 05:17:55;;;;;;;2.60;1.27;;;10.40;99.90;;;;;;5118162;27;20192;-77
2022/11/07 05:20:26;;;;;;;3.00;1.07;;;10.40;99.90;;;;;;5119520;27;20271;-77
2022/11/07 05:25:35;;;;;;;2.13;1.30;;;10.40;99.90;;;;;;5113388;28;20397;-77
2022/11/07 05:28:01;;;;;;;2.90;1.00;;;10.40;99.90;;;;;;5116991;28;20910;-79
2022/11/07 05:30:26;;;;;;;3.97;1.53;;;10.40;99.90;;;;;;5115642;28;20612;-79
2022/11/07 05:32:52;;;;;;;4.10;1.20;;;10.40;99.90;;;;;;5114076;28;20630;-77
2022/11/07 05:35:17;;;;;;;3.10;1.27;;;10.40;99.90;;;;;;5112455;28;20189;-77
2022/11/07 05:37:43;;;;;;;5.77;1.20;;;10.40;99.90;;;;;;5112732;28;20172;-77
2022/11/07 05:40:09;;;;;;;4.57;1.13;;;10.40;99.90;;;;;;5112507;28;20267;-77
2022/11/07 05:42:34;;;;;;;4.83;1.70;;;10.40;99.90;;;;;;5111731;28;20641;-77
2022/11/07 05:45:00;;;;;;;5.97;1.60;;;10.50;99.90;;;;;;5111482;28;20412;-77
2022/11/07 05:47:25;;;;;;;3.20;1.60;;;10.50;99.90;;;;;;5111905;28;20165;-76
2022/11/07 05:49:51;;;;;;;3.07;1.30;;;10.50;99.90;;;;;;5112284;28;20688;-77
2022/11/07 05:52:16;;;;;;;3.13;1.20;;;10.60;99.90;;;;;;5112500;28;20173;-77
2022/11/07 05:54:42;;;;;;;10.43;2.20;;;10.70;99.90;;;;;;5111002;28;20220;-79
2022/11/07 05:57:07;;;;;;;2.10;1.13;;;10.80;99.90;;;;;;5117627;28;20218;-79
2022/11/07 05:59:33;;;;;;;2.00;1.07;;;10.80;99.90;;;;;;5118692;28;20191;-78
2022/11/07 06:01:58;;;;;;;4.40;1.33;;;10.90;99.90;;;;;;5117519;28;20264;-78
2022/11/07 06:04:24;;;;;;;3.73;1.40;;;10.90;99.90;;;;;;5118461;28;20745;-78
2022/11/07 06:06:49;;;;;;;3.03;1.27;;;11.00;99.90;;;;;;5118397;28;20165;-79
2022/11/07 06:09:15;;;;;;;3.83;1.27;;;11.10;99.90;;;;;;5121860;28;20184;-78
2022/11/07 06:11:40;;;;;;;5.97;1.30;;;11.10;99.90;;;;;;5123206;28;20192;-79
2022/11/07 06:14:06;;;;;;;2.70;1.50;;;11.20;99.90;;;;;;5123447;28;20197;-79
2022/11/07 06:16:31;;;;;;;4.33;1.20;;;11.30;99.90;;;;;;5122893;28;20259;-78
2022/11/07 06:18:57;;;;;;;6.60;1.80;;;11.30;99.90;;;;;;5122941;28;20183;-77
2022/11/07 06:21:22;;;;;;;3.50;1.43;;;11.40;99.90;;;;;;5121685;28;20643;-78
2022/11/07 06:23:48;;;;;;;3.20;1.23;;;11.40;99.90;;;;;;5120985;28;20191;-79
2022/11/07 06:26:15;;;;;;;2.37;1.07;;;11.50;99.90;;;;;;5117123;28;20519;-78
2022/11/07 06:28:40;;;;;;;2.03;0.97;;;11.50;99.90;;;;;;5118168;27;20176;-78
2022/11/07 06:31:06;;;;;;;2.00;0.97;;;11.60;99.90;;;;;;5118474;28;20486;-78
2022/11/07 06:33:32;;;;;;;4.90;1.67;;;11.70;99.90;;;;;;5117286;28;20271;-77
2022/11/07 06:36:09;;;;;;;5.10;2.03;;;11.70;99.90;;;;;;5117268;28;20193;-78
2022/11/07 06:38:37;;;;;;;3.93;1.50;;;11.80;99.90;;;;;;5120901;28;20168;-79
2022/11/07 06:41:07;;;;;;;7.63;1.30;;;11.90;99.90;;;;;;5120584;28;20753;-77
2022/11/07 06:43:33;;;;;;;3.33;1.20;;;11.90;99.90;;;;;;5116417;28;20867;-78
2022/11/07 06:46:03;;;;;;;3.63;1.17;;;12.00;99.90;;;;;;5116876;28;20938;-78
2022/11/07 06:48:29;;;;;;;1.30;1.00;;;12.00;99.90;;;;;;5117047;28;20423;-78
2022/11/07 06:50:59;;;;;;;8.10;1.40;;;12.10;99.90;;;;;;5117386;28;20865;-78
2022/11/07 06:53:25;;;;;;;4.40;1.47;;;12.10;99.90;;;;;;5118004;28;20252;-78
2022/11/07 06:55:51;;;;;;;2.07;1.00;;;12.20;99.90;;;;;;5117815;28;20442;-78
2022/11/07 06:58:17;;;;;;;5.60;1.40;;;12.30;99.90;;;;;;5118017;28;20403;-78
2022/11/07 07:00:43;;;;;;;3.03;1.20;;;12.30;99.90;;;;;;5117023;28;20769;-77
2022/11/07 07:03:10;;;;;;;9.23;1.20;;;12.40;99.90;;;;;;5116220;28;20214;-79
2022/11/07 07:05:36;;;;;;;9.53;1.27;;;12.40;99.90;;;;;;5116359;28;20161;-77
2022/11/07 07:08:04;;;;;;;6.10;1.83;;;12.50;99.90;;;;;;5115482;28;20402;-76
2022/11/07 07:10:30;;;;;;;2.60;1.00;;;12.50;99.90;;;;;;5115220;28;20200;-77
2022/11/07 07:12:56;;;;;;;3.23;0.93;;;12.60;99.90;;;;;;5115368;28;20398;-77
2022/11/07 07:15:21;;;;;;;4.73;1.60;;;12.70;99.90;;;;;;5113693;28;20453;-77
2022/11/07 07:17:47;;;;;;;5.17;1.20;;;12.70;99.90;;;;;;5115083;28;20169;-77
2022/11/07 07:20:13;;;;;;;6.60;1.10;;;12.80;99.90;;;;;;5115132;28;20195;-77
2022/11/07 07:22:39;;;;;;;2.37;1.07;;;12.80;99.90;;;;;;5115117;28;20421;-77
2022/11/07 07:25:05;;;;;;;3.67;1.43;;;12.90;99.90;;;;;;5116065;28;20672;-78
2022/11/07 07:27:30;;;;;;;2.90;1.20;;;13.00;99.90;;;;;;5119971;28;20165;-79
2022/11/07 07:29:56;;;;;;;5.87;1.30;;;13.00;99.90;;;;;;5120671;28;20469;-79
2022/11/07 07:32:24;;;;;;;3.43;1.23;;;13.10;99.90;;;;;;5120096;28;20575;-77
2022/11/07 07:34:49;;;;;;;3.27;1.53;;;13.10;99.90;;;;;;5117156;28;20192;-78
2022/11/07 07:37:15;;;;;;;1.77;1.10;;;13.10;99.90;;;;;;5115721;28;20410;-79
2022/11/07 07:39:40;;;;;;;4.70;1.20;;;13.20;99.90;;;;;;5113944;28;20439;-76
2022/11/07 07:42:06;;;;;;;5.47;1.23;;;13.30;99.90;;;;;;5114844;28;20251;-77
2022/11/07 07:44:31;;;;;;;7.37;2.03;;;13.30;99.90;;;;;;5113270;28;20237;-77
2022/11/07 07:46:57;;;;;;;5.17;1.50;;;13.40;99.90;;;;;;5114747;28;20168;-77
2022/11/07 07:49:22;;;;;;;2.73;1.17;;;13.40;99.90;;;;;;5114380;28;20246;-77
2022/11/07 07:51:48;;;;;;;5.63;2.70;;;13.40;99.90;;;;;;5114734;28;20184;-77
2022/11/07 07:54:14;;;;;;;4.60;1.23;;;13.40;99.90;;;;;;5113046;28;20172;-78
2022/11/07 07:56:39;;;;;;;1.87;1.20;;;13.40;99.90;;;;;;5114521;28;20193;-78
2022/11/07 07:59:05;;;;;;;2.50;0.97;;;13.40;99.90;;;;;;5114377;28;20165;-77
2022/11/07 08:01:31;;;;;;;2.60;1.23;;;13.30;99.90;;;;;;5113099;28;20189;-77
2022/11/07 08:03:56;;;;;;;3.93;1.40;;;13.40;99.90;;;;;;5119901;28;20193;-77
2022/11/07 08:06:22;;;;;;;2.60;1.23;;;13.40;99.90;;;;;;5115685;28;20173;-77
2022/11/07 08:08:47;;;;;;;4.13;1.77;;;13.40;99.90;;;;;;5112814;28;20173;-77
2022/11/07 08:11:13;;;;;;;2.77;1.40;;;13.40;99.90;;;;;;5113789;28;20200;-77
2022/11/07 08:13:38;;;;;;;3.47;1.40;;;13.40;99.90;;;;;;5114180;28;20645;-77
2022/11/07 08:16:06;;;;;;;4.43;1.80;;;13.40;99.90;;;;;;5113860;28;20275;-76
2022/11/07 08:18:32;;;;;;;3.60;1.30;;;13.40;99.90;;;;;;5114185;28;20161;-76
2022/11/07 08:20:57;;;;;;;9.77;2.20;;;13.40;99.90;;;;;;5113886;28;20447;-77
2022/11/07 08:23:23;;;;;;;5.10;1.43;;;13.40;99.90;;;;;;5116201;28;20192;-79
2022/11/07 08:25:54;;;;;;;3.00;1.13;;;13.40;99.90;;;;;;5115374;28;20181;-78
2022/11/07 08:28:22;;;;;;;3.13;1.60;;;13.40;99.90;;;;;;5115901;27;20473;-78
2022/11/07 08:31:14;;;;;;;4.80;1.23;;;13.40;99.90;;;;;;5113817;28;20446;-78
2022/11/07 08:33:39;;;;;;;3.20;0.90;;;13.30;99.90;;;;;;5112370;28;20468;-77
2022/11/07 08:36:06;;;;;;;3.77;1.37;;;13.40;99.90;;;;;;5113452;28;20446;-77
2022/11/07 08:38:33;;;;;;;2.17;1.00;;;13.40;99.90;;;;;;5113720;28;20234;-77
2022/11/07 08:40:59;;;;;;;2.80;1.00;;;13.40;99.90;;;;;;5112330;28;20430;-78
2022/11/07 08:43:25;;;;;;;6.93;1.37;;;13.50;99.90;;;;;;5113422;28;20764;-78
2022/11/07 08:45:52;;;;;;;2.23;1.17;;;13.50;99.90;;;;;;5113416;28;20173;-77
2022/11/07 08:48:17;;;;;;;5.13;1.10;;;13.50;99.90;;;;;;5113434;28;20177;-77
2022/11/07 08:50:44;;;;;;;2.37;1.07;;;13.50;99.90;;;;;;5113503;28;20997;-77
2022/11/07 08:53:10;;;;;;;4.27;1.27;;;13.40;99.90;;;;;;5114077;28;20184;-78
2022/11/07 08:55:35;;;;;;;2.60;1.00;;;13.50;99.90;;;;;;5116121;28;20446;-79
2022/11/07 08:58:04;;;;;;;3.93;1.63;;;13.50;99.90;;;;;;5119311;28;20460;-79
2022/11/07 09:00:30;;;;;;;2.10;1.23;;;13.50;99.90;;;;;;5115188;28;20185;-78
2022/11/07 09:02:55;;;;;;;2.70;1.23;;;13.50;99.90;;;;;;5114089;28;20410;-76
2022/11/07 09:05:21;;;;;;;5.00;1.07;;;13.60;99.90;;;;;;5111338;28;20413;-77
2022/11/07 09:07:47;;;;;;;2.23;0.93;;;13.60;99.90;;;;;;5113302;28;20519;-76
2022/11/07 09:10:12;;;;;;;5.00;1.30;;;13.70;99.90;;;;;;5113086;28;20673;-77
2022/11/07 09:12:48;;;;;;;1.93;1.40;;;13.80;99.90;;;;;;5111599;28;20347;-77
2022/11/07 09:15:14;;;;;;;2.30;1.23;;;13.80;99.90;;;;;;5112749;28;20551;-76
2022/11/07 09:17:41;;;;;;;8.33;1.40;;;13.80;99.90;;;;;;5111410;28;21065;-76
2022/11/07 09:20:07;;;;;;;6.77;1.30;;;13.80;99.90;;;;;;5117949;28;20559;-79
2022/11/07 09:22:33;;;;;;;2.37;1.30;;;13.70;99.90;;;;;;5118945;28;20880;-78
2022/11/07 09:24:59;;;;;;;2.40;1.10;;;13.80;99.90;;;;;;5117284;28;20421;-77
2022/11/07 09:27:24;;;;;;;3.43;1.33;;;13.80;99.90;;;;;;5117745;28;20164;-79
2022/11/07 09:29:49;;;;;;;2.50;1.20;;;13.80;99.90;;;;;;5112776;28;20193;-76
2022/11/07 09:32:15;;;;;;;2.93;1.57;;;13.80;99.90;;;;;;5112512;28;20168;-76
2022/11/07 09:34:43;;;;;;;9.70;2.00;;;13.80;99.90;;;;;;5112198;28;20526;-76
2022/11/07 09:37:09;;;;;;;9.73;1.63;;;13.90;99.90;;;;;;5112409;28;20164;-77
2022/11/07 09:39:35;;;;;;;5.23;1.33;;;14.00;99.90;;;;;;5112246;28;20741;-76
2022/11/07 09:42:32;;;;;;;3.53;1.13;;;14.00;99.90;;;;;;5112374;28;20410;-76
2022/11/07 09:44:59;;;;;;;3.20;1.60;;;14.10;99.90;;;;;;5112895;28;20175;-78
2022/11/07 09:47:42;;;;;;;3.97;1.40;;;14.10;99.90;;;;;;5112535;28;20403;-78
2022/11/07 09:50:19;;;;;;;3.00;1.53;;;14.20;99.90;;;;;;5099583;28;20434;-78
2022/11/07 09:52:51;;;;;;;4.90;1.00;;;14.20;99.90;;;;;;5114295;28;20399;-78
2022/11/07 09:55:23;;;;;;;3.03;1.30;;;14.30;99.90;;;;;;5113728;28;20477;-78
2022/11/07 09:57:53;;;;;;;2.30;1.00;;;14.40;99.90;;;;;;5114216;28;20403;-78
2022/11/07 10:00:20;;;;;;;3.00;1.00;;;14.50;99.90;;;;;;5114031;28;20445;-78
2022/11/07 10:02:58;;;;;;;3.20;0.93;;;14.50;99.90;;;;;;5114100;28;20410;-79
2022/11/07 10:05:45;;;;;;;7.67;1.57;;;14.50;99.90;;;;;;5113517;28;20891;-79
2022/11/07 10:08:26;;;;;;;3.00;1.00;;;14.60;99.90;;;;;;5111061;28;20406;-78
2022/11/07 10:10:59;;;;;;;4.40;1.10;;;14.70;99.90;;;;;;5111833;28;20474;-77
2022/11/07 10:14:02;;;;;;;2.57;1.60;;;14.80;99.90;;;;;;5112336;28;20774;-77
2022/11/07 10:17:03;;;;;;;7.67;1.50;;;14.80;99.90;;;;;;5112832;28;20976;-78
2022/11/07 10:19:53;;;;;;;10.63;1.63;;;14.80;99.90;;;;;;5088142;28;20453;-77
2022/11/07 10:22:59;;;;;;;2.00;1.10;;;14.80;99.90;;;;;;5092015;28;20399;-78
2022/11/07 10:25:38;;;;;;;2.53;1.07;;;14.80;99.90;;;;;;5093409;28;20407;-78
2022/11/07 10:28:14;;;;;;;2.43;1.07;;;14.90;99.90;;;;;;5093810;28;20800;-78
2022/11/07 10:30:51;;;;;;;3.10;1.10;;;14.90;99.90;;;;;;5102467;28;20430;-78
2022/11/07 10:33:33;;;;;;;3.20;0.90;;;14.90;99.90;;;;;;5112680;28;20426;-77
2022/11/07 10:36:23;;;;;;;1.93;1.10;;;15.00;99.90;;;;;;5111859;28;21050;-77
2022/11/07 10:38:49;;;;;;;3.13;0.90;;;15.20;99.90;;;;;;5111971;28;20406;-77
2022/11/07 10:41:21;;;;;;;3.40;1.47;;;15.80;99.90;;;;;;5111665;28;20847;-76
2022/11/07 10:43:51;;;;;;;2.10;1.10;;;16.20;99.90;;;;;;5112078;28;20401;-77
2022/11/07 10:46:24;;;;;;;4.87;1.43;;;16.40;99.90;;;;;;5111814;28;20999;-78
2022/11/07 10:48:57;;;;;;;4.80;1.70;;;16.60;99.90;;;;;;5110656;28;20411;-78
2022/11/07 10:51:39;;;;;;;5.90;1.13;;;16.60;99.90;;;;;;5111886;28;20483;-76
2022/11/07 10:54:06;;;;;;;2.40;1.27;;;16.70;99.90;;;;;;5113582;28;20442;-76
2022/11/07 10:56:47;;;;;;;5.63;1.13;;;16.70;99.90;;;;;;5115419;28;20447;-77
2022/11/07 10:59:20;;;;;;;3.10;1.20;;;16.50;99.90;;;;;;5115729;28;20394;-78
2022/11/07 11:01:53;;;;;;;2.37;1.13;;;16.40;99.90;;;;;;5114666;28;20949;-77
2022/11/07 11:04:21;;;;;;;6.97;1.40;;;16.30;99.90;;;;;;5115430;28;20925;-78
2022/11/07 11:07:00;;;;;;;1.60;0.93;;;16.10;99.90;;;;;;5115570;28;20430;-77
2022/11/07 11:09:35;;;;;;;3.63;1.20;;;16.20;99.90;;;;;;5116012;28;20429;-78
2022/11/07 11:12:10;;;;;;;3.47;1.67;;;15.90;99.90;;;;;;5120957;28;20432;-79
2022/11/07 11:14:36;;;;;;;5.00;1.37;;;16.00;99.90;;;;;;5119712;28;20406;-78
2022/11/07 11:17:02;;;;;;;3.20;1.37;;;15.80;99.90;;;;;;5117346;28;20456;-78
2022/11/07 11:19:40;;;;;;;2.23;1.13;;;15.80;99.90;;;;;;5120716;27;20194;-79
2022/11/07 11:22:15;;;;;;;2.43;1.00;;;15.90;99.90;;;;;;5116410;28;20833;-79
2022/11/07 11:24:40;;;;;;;1.30;0.90;;;16.00;99.90;;;;;;5117381;28;20474;-78
2022/11/07 11:27:18;;;;;;;1.80;1.00;;;16.20;99.90;;;;;;5116887;28;20793;-78
2022/11/07 11:30:06;;;;;;;1.20;0.80;;;16.80;99.90;;;;;;5120955;28;20187;-78
2022/11/07 11:33:00;;;;;;;5.20;1.67;;;17.80;99.90;;;;;;5115043;28;20407;-78
2022/11/07 11:35:38;;;;;;;3.67;1.73;;;18.30;99.90;;;;;;5090676;28;20450;-77
2022/11/07 11:38:13;;;;;;;2.30;1.03;;;18.90;99.90;;;;;;5121539;28;20398;-79
2022/11/07 11:40:41;;;;;;;4.27;1.40;;;19.80;99.90;;;;;;5119014;28;20923;-79
2022/11/07 11:43:18;;;;;;;3.33;1.23;;;20.20;99.90;;;;;;5117402;28;20395;-78
2022/11/07 11:46:15;;;;;;;1.57;1.13;;;20.80;99.90;;;;;;5118907;28;20947;-79
2022/11/07 11:48:50;;;;;;;2.77;1.40;;;21.00;99.90;;;;;;5102275;28;20446;-78
2022/11/07 11:51:32;;;;;;;2.90;1.33;;;21.00;99.90;;;;;;5114595;28;20421;-78
2022/11/07 11:53:58;;;;;;;1.33;1.13;;;20.70;99.90;;;;;;5116385;27;20414;-77
2022/11/07 11:56:36;;;;;;;1.53;1.23;;;20.40;99.90;;;;;;5115912;28;20442;-79
2022/11/07 11:59:04;;;;;;;1.80;1.00;;;20.00;99.90;;;;;;5116943;28;20391;-78
2022/11/07 12:01:48;;;;;;;2.60;1.30;;;19.50;99.90;;;;;;5114853;28;20461;-77
2022/11/07 12:04:25;;;;;;;5.00;1.30;;;19.10;99.90;;;;;;5113271;28;21012;-78
2022/11/07 12:06:56;;;;;;;1.90;0.90;;;18.80;99.90;;;;;;5116861;28;20428;-78
2022/11/07 12:09:26;;;;;;;3.23;1.20;;;18.50;99.90;;;;;;5115613;28;20438;-78
2022/11/07 12:12:29;;;;;;;3.50;1.20;;;18.10;99.90;;;;;;5116748;28;20403;-78
2022/11/07 12:15:00;;;;;;;1.20;0.90;;;17.80;99.90;;;;;;5116303;28;20403;-78
2022/11/07 12:17:36;;;;;;;2.90;1.47;;;17.60;99.90;;;;;;5114010;28;20418;-77
2022/11/07 12:20:25;;;;;;;7.37;4.33;;;17.60;99.90;;;;;;5114289;28;20418;-78
2022/11/07 12:22:56;;;;;;;3.13;1.13;;;17.50;99.90;;;;;;5114636;28;20786;-77
2022/11/07 12:25:31;;;;;;;2.60;1.20;;;17.40;99.90;;;;;;5112773;28;20406;-77
2022/11/07 12:28:18;;;;;;;7.87;1.47;;;17.30;99.90;;;;;;5114543;28;20505;-79
2022/11/07 12:30:44;;;;;;;2.60;1.10;;;17.30;99.90;;;;;;5119542;28;20502;-77
2022/11/07 12:33:32;;;;;;;2.93;1.30;;;17.40;99.90;;;;;;5114871;28;20434;-78
2022/11/07 12:36:09;;;;;;;6.07;1.33;;;17.40;99.90;;;;;;5112902;28;20723;-76
2022/11/07 12:39:16;;;;;;;1.10;0.80;;;17.50;99.90;;;;;;5112797;28;20876;-76
2022/11/07 12:41:57;;;;;;;3.90;1.00;;;17.50;99.90;;;;;;5104049;28;20826;-77
2022/11/07 12:44:54;;;;;;;1.50;0.90;;;17.30;99.90;;;;;;5112466;28;20849;-77
2022/11/07 12:47:58;;;;;;;8.53;1.10;;;17.20;99.90;;;;;;5113381;28;20477;-78
2022/11/07 12:50:52;;;;;;;1.57;1.03;;;17.00;99.90;;;;;;5113787;28;20798;-77
2022/11/07 12:53:56;;;;;;;2.63;0.93;;;17.00;99.90;;;;;;5111325;28;20434;-76
2022/11/07 12:56:30;;;;;;;1.20;0.70;;;16.90;99.90;;;;;;5112592;28;20625;-77
2022/11/07 12:58:56;;;;;;;2.57;1.23;;;16.80;99.90;;;;;;5113878;28;20918;-78
2022/11/07 13:01:37;;;;;;;1.77;1.17;;;16.70;99.90;;;;;;5112964;28;20533;-78
2022/11/07 13:04:25;;;;;;;5.97;1.00;;;16.70;99.90;;;;;;5115216;28;20399;-78
2022/11/07 13:06:58;;;;;;;1.80;1.20;;;16.80;99.90;;;;;;5113920;28;20414;-77
2022/11/07 13:09:49;;;;;;;2.40;0.80;;;16.90;99.90;;;;;;5112397;28;20782;-78
2022/11/07 13:12:27;;;;;;;1.20;1.10;;;16.90;99.90;;;;;;5113726;28;20421;-78
2022/11/07 13:14:53;;;;;;;7.63;1.10;;;16.90;99.90;;;;;;5113917;28;20414;-78